sensor_id;sensor_type;location;lat;lon;timestamp;temperature;humidity
4651;DHT22;2338;49.602;8.722;2022-11-25T00:02:26;4.30;99.90
4651;DHT22;2338;49.602;8.722;2022-11-25T00:05:11;4.30;99.90
4651;DHT22;2338;49.602;8.722;2022-11-25T00:07:57;4.30;99.90
4651;DHT22;2338;49.602;8.722;2022-11-25T00:10:43;4.30;99.90
4651;DHT22;2338;49.602;8.722;2022-11-25T00:13:29;4.40;99.90
4651;DHT22;2338;49.602;8.722;2022-11-25T00:16:17;4.40;99.90
4651;DHT22;2338;49.602;8.722;2022-11-25T00:19:03;4.40;99.90
4651;DHT22;2338;49.602;8.722;2022-11-25T00:21:49;4.50;99.90
4651;DHT22;2338;49.602;8.722;2022-11-25T00:24:35;4.50;99.90
4651;DHT22;2338;49.602;8.722;2022-11-25T00:27:20;4.10;99.90
4651;DHT22;2338;49.602;8.722;2022-11-25T00:30:07;4.00;99.90
4651;DHT22;2338;49.602;8.722;2022-11-25T00:32:54;3.80;99.90
4651;DHT22;2338;49.602;8.722;2022-11-25T00:35:39;3.90;99.90
4651;DHT22;2338;49.602;8.722;2022-11-25T00:38:25;3.90;99.90
4651;DHT22;2338;49.602;8.722;2022-11-25T00:41:11;4.00;99.90
4651;DHT22;2338;49.602;8.722;2022-11-25T00:44:16;4.00;99.90
4651;DHT22;2338;49.602;8.722;2022-11-25T00:47:21;4.10;99.90
4651;DHT22;2338;49.602;8.722;2022-11-25T00:50:08;4.20;99.90
4651;DHT22;2338;49.602;8.722;2022-11-25T00:52:54;4.30;99.90
4651;DHT22;2338;49.602;8.722;2022-11-25T00:55:39;4.40;99.90
4651;DHT22;2338;49.602;8.722;2022-11-25T00:58:39;4.40;99.90
4651;DHT22;2338;49.602;8.722;2022-11-25T01:01:24;4.40;99.90
4651;DHT22;2338;49.602;8.722;2022-11-25T01:04:10;4.40;99.90
4651;DHT22;2338;49.602;8.722;2022-11-25T01:06:57;4.20;99.90
4651;DHT22;2338;49.602;8.722;2022-11-25T01:09:43;4.10;99.90
4651;DHT22;2338;49.602;8.722;2022-11-25T01:12:28;3.90;99.90
4651;DHT22;2338;49.602;8.722;2022-11-25T01:15:14;3.60;99.90
4651;DHT22;2338;49.602;8.722;2022-11-25T01:17:59;3.50;99.90
4651;DHT22;2338;49.602;8.722;2022-11-25T01:20:45;3.60;99.90
4651;DHT22;2338;49.602;8.722;2022-11-25T01:23:31;3.80;99.90
4651;DHT22;2338;49.602;8.722;2022-11-25T01:26:19;3.80;99.90
4651;DHT22;2338;49.602;8.722;2022-11-25T01:29:06;3.90;99.90
4651;DHT22;2338;49.602;8.722;2022-11-25T01:31:54;3.70;99.90
4651;DHT22;2338;49.602;8.722;2022-11-25T01:34:40;3.60;99.90
4651;DHT22;2338;49.602;8.722;2022-11-25T01:37:26;3.80;99.90
4651;DHT22;2338;49.602;8.722;2022-11-25T01:40:13;3.90;99.90
4651;DHT22;2338;49.602;8.722;2022-11-25T01:42:59;4.00;99.90
4651;DHT22;2338;49.602;8.722;2022-11-25T01:45:45;3.80;99.90
4651;DHT22;2338;49.602;8.722;2022-11-25T01:48:38;3.80;99.90
4651;DHT22;2338;49.602;8.722;2022-11-25T01:51:27;3.70;99.90
4651;DHT22;2338;49.602;8.722;2022-11-25T01:54:16;3.80;99.90
4651;DHT22;2338;49.602;8.722;2022-11-25T01:57:07;3.70;99.90
4651;DHT22;2338;49.602;8.722;2022-11-25T01:59:56;3.70;99.90
4651;DHT22;2338;49.602;8.722;2022-11-25T02:02:45;3.90;99.90
4651;DHT22;2338;49.602;8.722;2022-11-25T02:05:37;4.00;99.90
4651;DHT22;2338;49.602;8.722;2022-11-25T02:08:25;4.10;99.90
4651;DHT22;2338;49.602;8.722;2022-11-25T02:11:13;4.00;99.90
4651;DHT22;2338;49.602;8.722;2022-11-25T02:14:02;4.20;99.90
4651;DHT22;2338;49.602;8.722;2022-11-25T02:16:48;4.30;99.90
4651;DHT22;2338;49.602;8.722;2022-11-25T02:19:44;4.30;99.90
4651;DHT22;2338;49.602;8.722;2022-11-25T02:22:43;4.40;99.90
4651;DHT22;2338;49.602;8.722;2022-11-25T02:25:35;4.30;99.90
4651;DHT22;2338;49.602;8.722;2022-11-25T02:28:23;4.20;99.90
4651;DHT22;2338;49.602;8.722;2022-11-25T02:31:09;4.20;99.90
4651;DHT22;2338;49.602;8.722;2022-11-25T02:33:55;4.00;99.90
4651;DHT22;2338;49.602;8.722;2022-11-25T02:36:41;3.90;99.90
4651;DHT22;2338;49.602;8.722;2022-11-25T02:39:27;4.00;99.90
4651;DHT22;2338;49.602;8.722;2022-11-25T02:42:14;4.00;99.90
4651;DHT22;2338;49.602;8.722;2022-11-25T02:45:02;4.10;99.90
4651;DHT22;2338;49.602;8.722;2022-11-25T02:47:48;4.20;99.90
4651;DHT22;2338;49.602;8.722;2022-11-25T02:50:33;4.30;99.90
4651;DHT22;2338;49.602;8.722;2022-11-25T02:53:19;4.40;99.90
4651;DHT22;2338;49.602;8.722;2022-11-25T02:56:06;4.40;99.90
4651;DHT22;2338;49.602;8.722;2022-11-25T02:58:54;4.40;99.90
4651;DHT22;2338;49.602;8.722;2022-11-25T03:01:40;4.30;99.90
4651;DHT22;2338;49.602;8.722;2022-11-25T03:04:26;4.30;99.90
4651;DHT22;2338;49.602;8.722;2022-11-25T03:07:11;4.30;99.90
4651;DHT22;2338;49.602;8.722;2022-11-25T03:09:56;4.20;99.90
4651;DHT22;2338;49.602;8.722;2022-11-25T03:12:42;4.30;99.90
4651;DHT22;2338;49.602;8.722;2022-11-25T03:15:30;4.40;99.90
4651;DHT22;2338;49.602;8.722;2022-11-25T03:18:15;4.60;99.90
4651;DHT22;2338;49.602;8.722;2022-11-25T03:21:01;4.60;99.90
4651;DHT22;2338;49.602;8.722;2022-11-25T03:23:47;4.70;99.90
4651;DHT22;2338;49.602;8.722;2022-11-25T03:26:33;4.60;99.90
4651;DHT22;2338;49.602;8.722;2022-11-25T03:29:19;4.70;99.90
4651;DHT22;2338;49.602;8.722;2022-11-25T03:32:06;4.70;99.90
4651;DHT22;2338;49.602;8.722;2022-11-25T03:34:53;4.70;99.90
4651;DHT22;2338;49.602;8.722;2022-11-25T03:37:39;4.70;99.90
4651;DHT22;2338;49.602;8.722;2022-11-25T03:40:25;4.60;99.90
4651;DHT22;2338;49.602;8.722;2022-11-25T03:43:12;4.60;99.90
4651;DHT22;2338;49.602;8.722;2022-11-25T03:45:58;4.50;99.90
4651;DHT22;2338;49.602;8.722;2022-11-25T03:48:44;4.50;99.90
4651;DHT22;2338;49.602;8.722;2022-11-25T03:51:30;4.40;99.90
4651;DHT22;2338;49.602;8.722;2022-11-25T03:54:16;4.40;99.90
4651;DHT22;2338;49.602;8.722;2022-11-25T03:57:01;4.30;99.90
4651;DHT22;2338;49.602;8.722;2022-11-25T03:59:47;4.20;99.90
4651;DHT22;2338;49.602;8.722;2022-11-25T04:02:32;4.20;99.90
4651;DHT22;2338;49.602;8.722;2022-11-25T04:05:19;4.10;99.90
4651;DHT22;2338;49.602;8.722;2022-11-25T04:08:05;4.20;99.90
4651;DHT22;2338;49.602;8.722;2022-11-25T04:10:50;4.30;99.90
4651;DHT22;2338;49.602;8.722;2022-11-25T04:13:36;4.40;99.90
4651;DHT22;2338;49.602;8.722;2022-11-25T04:16:22;4.50;99.90
4651;DHT22;2338;49.602;8.722;2022-11-25T04:19:09;4.50;99.90
4651;DHT22;2338;49.602;8.722;2022-11-25T04:21:56;4.70;99.90
4651;DHT22;2338;49.602;8.722;2022-11-25T04:24:42;4.70;99.90
4651;DHT22;2338;49.602;8.722;2022-11-25T04:27:28;4.70;99.90
4651;DHT22;2338;49.602;8.722;2022-11-25T04:30:14;4.60;99.90
4651;DHT22;2338;49.602;8.722;2022-11-25T04:33:00;4.60;99.90
4651;DHT22;2338;49.602;8.722;2022-11-25T04:35:46;4.60;99.90
4651;DHT22;2338;49.602;8.722;2022-11-25T04:38:35;4.70;99.90
4651;DHT22;2338;49.602;8.722;2022-11-25T04:41:20;4.70;99.90
4651;DHT22;2338;49.602;8.722;2022-11-25T04:44:06;4.70;99.90
4651;DHT22;2338;49.602;8.722;2022-11-25T04:46:51;4.60;99.90
4651;DHT22;2338;49.602;8.722;2022-11-25T04:49:37;4.50;99.90
4651;DHT22;2338;49.602;8.722;2022-11-25T04:52:23;4.60;99.90
4651;DHT22;2338;49.602;8.722;2022-11-25T04:55:10;4.60;99.90
4651;DHT22;2338;49.602;8.722;2022-11-25T04:57:56;4.60;99.90
4651;DHT22;2338;49.602;8.722;2022-11-25T05:00:42;4.50;99.90
4651;DHT22;2338;49.602;8.722;2022-11-25T05:03:26;4.60;99.90
4651;DHT22;2338;49.602;8.722;2022-11-25T05:06:12;4.60;99.90
4651;DHT22;2338;49.602;8.722;2022-11-25T05:08:58;4.70;99.90
4651;DHT22;2338;49.602;8.722;2022-11-25T05:11:45;4.80;99.90
4651;DHT22;2338;49.602;8.722;2022-11-25T05:14:31;4.80;99.90
4651;DHT22;2338;49.602;8.722;2022-11-25T05:17:20;4.50;99.90
4651;DHT22;2338;49.602;8.722;2022-11-25T05:20:07;4.40;99.90
4651;DHT22;2338;49.602;8.722;2022-11-25T05:22:52;4.30;99.90
4651;DHT22;2338;49.602;8.722;2022-11-25T05:25:38;4.20;99.90
4651;DHT22;2338;49.602;8.722;2022-11-25T05:28:26;4.20;99.90
4651;DHT22;2338;49.602;8.722;2022-11-25T05:31:12;4.10;99.90
4651;DHT22;2338;49.602;8.722;2022-11-25T05:33:59;4.20;99.90
4651;DHT22;2338;49.602;8.722;2022-11-25T05:36:45;4.10;99.90
4651;DHT22;2338;49.602;8.722;2022-11-25T05:39:30;4.10;99.90
4651;DHT22;2338;49.602;8.722;2022-11-25T05:42:16;4.30;99.90
4651;DHT22;2338;49.602;8.722;2022-11-25T05:45:04;4.40;99.90
4651;DHT22;2338;49.602;8.722;2022-11-25T05:47:50;4.50;99.90
4651;DHT22;2338;49.602;8.722;2022-11-25T05:50:36;4.50;99.90
4651;DHT22;2338;49.602;8.722;2022-11-25T05:53:22;4.60;99.90
4651;DHT22;2338;49.602;8.722;2022-11-25T05:56:09;4.60;99.90
4651;DHT22;2338;49.602;8.722;2022-11-25T05:58:54;4.60;99.90
4651;DHT22;2338;49.602;8.722;2022-11-25T06:01:42;4.40;99.90
4651;DHT22;2338;49.602;8.722;2022-11-25T06:04:27;4.50;99.90
4651;DHT22;2338;49.602;8.722;2022-11-25T06:07:13;4.50;99.90
4651;DHT22;2338;49.602;8.722;2022-11-25T06:09:59;4.50;99.90
4651;DHT22;2338;49.602;8.722;2022-11-25T06:12:44;4.40;99.90
4651;DHT22;2338;49.602;8.722;2022-11-25T06:15:30;4.30;99.90
4651;DHT22;2338;49.602;8.722;2022-11-25T06:18:17;4.30;99.90
4651;DHT22;2338;49.602;8.722;2022-11-25T06:21:04;4.30;99.90
4651;DHT22;2338;49.602;8.722;2022-11-25T06:23:50;4.30;99.90
4651;DHT22;2338;49.602;8.722;2022-11-25T06:26:36;4.30;99.90
4651;DHT22;2338;49.602;8.722;2022-11-25T06:29:21;4.50;99.90
4651;DHT22;2338;49.602;8.722;2022-11-25T06:32:07;4.60;99.90
4651;DHT22;2338;49.602;8.722;2022-11-25T06:34:54;4.70;99.90
4651;DHT22;2338;49.602;8.722;2022-11-25T06:37:40;4.80;99.90
4651;DHT22;2338;49.602;8.722;2022-11-25T06:40:26;4.80;99.90
4651;DHT22;2338;49.602;8.722;2022-11-25T06:43:11;4.80;99.90
4651;DHT22;2338;49.602;8.722;2022-11-25T06:46:01;4.70;99.90
4651;DHT22;2338;49.602;8.722;2022-11-25T06:48:47;4.80;99.90
4651;DHT22;2338;49.602;8.722;2022-11-25T06:51:34;4.90;99.90
4651;DHT22;2338;49.602;8.722;2022-11-25T06:54:19;5.00;99.90
4651;DHT22;2338;49.602;8.722;2022-11-25T06:57:05;4.80;99.90
4651;DHT22;2338;49.602;8.722;2022-11-25T06:59:51;4.90;99.90
4651;DHT22;2338;49.602;8.722;2022-11-25T07:02:36;5.00;99.90
4651;DHT22;2338;49.602;8.722;2022-11-25T07:05:22;5.10;99.90
4651;DHT22;2338;49.602;8.722;2022-11-25T07:08:10;5.20;99.90
4651;DHT22;2338;49.602;8.722;2022-11-25T07:11:01;5.20;99.90
4651;DHT22;2338;49.602;8.722;2022-11-25T07:13:49;5.30;99.90
4651;DHT22;2338;49.602;8.722;2022-11-25T07:16:36;5.20;99.90
4651;DHT22;2338;49.602;8.722;2022-11-25T07:19:22;5.30;99.90
4651;DHT22;2338;49.602;8.722;2022-11-25T07:22:07;5.30;99.90
4651;DHT22;2338;49.602;8.722;2022-11-25T07:24:54;5.20;99.90
4651;DHT22;2338;49.602;8.722;2022-11-25T07:27:40;5.30;99.90
4651;DHT22;2338;49.602;8.722;2022-11-25T07:30:25;5.30;99.90
4651;DHT22;2338;49.602;8.722;2022-11-25T07:33:11;5.30;99.90
4651;DHT22;2338;49.602;8.722;2022-11-25T07:36:00;5.30;99.90
4651;DHT22;2338;49.602;8.722;2022-11-25T07:38:46;5.50;99.90
4651;DHT22;2338;49.602;8.722;2022-11-25T07:41:33;5.60;99.90
4651;DHT22;2338;49.602;8.722;2022-11-25T07:44:19;5.60;99.90
4651;DHT22;2338;49.602;8.722;2022-11-25T07:47:05;5.70;99.90
4651;DHT22;2338;49.602;8.722;2022-11-25T07:49:51;5.70;99.90
4651;DHT22;2338;49.602;8.722;2022-11-25T07:52:37;5.60;99.90
4651;DHT22;2338;49.602;8.722;2022-11-25T07:55:23;5.60;99.90
4651;DHT22;2338;49.602;8.722;2022-11-25T07:58:10;5.60;99.90
4651;DHT22;2338;49.602;8.722;2022-11-25T08:00:56;5.60;99.90
4651;DHT22;2338;49.602;8.722;2022-11-25T08:03:42;5.70;99.90
4651;DHT22;2338;49.602;8.722;2022-11-25T08:06:28;5.60;99.90
4651;DHT22;2338;49.602;8.722;2022-11-25T08:09:16;5.70;99.90
4651;DHT22;2338;49.602;8.722;2022-11-25T08:12:02;5.80;99.90
4651;DHT22;2338;49.602;8.722;2022-11-25T08:14:49;5.70;99.90
4651;DHT22;2338;49.602;8.722;2022-11-25T08:17:35;5.80;99.90
4651;DHT22;2338;49.602;8.722;2022-11-25T08:20:21;5.90;99.90
4651;DHT22;2338;49.602;8.722;2022-11-25T08:23:06;6.00;99.90
4651;DHT22;2338;49.602;8.722;2022-11-25T08:25:52;6.10;99.90
4651;DHT22;2338;49.602;8.722;2022-11-25T08:28:38;6.20;99.90
4651;DHT22;2338;49.602;8.722;2022-11-25T08:31:28;6.20;99.90
4651;DHT22;2338;49.602;8.722;2022-11-25T08:34:17;6.20;99.90
4651;DHT22;2338;49.602;8.722;2022-11-25T08:37:03;6.20;99.90
4651;DHT22;2338;49.602;8.722;2022-11-25T08:39:48;6.30;99.90
4651;DHT22;2338;49.602;8.722;2022-11-25T08:42:34;6.30;99.90
4651;DHT22;2338;49.602;8.722;2022-11-25T08:45:20;6.40;99.90
4651;DHT22;2338;49.602;8.722;2022-11-25T08:48:07;6.30;99.90
4651;DHT22;2338;49.602;8.722;2022-11-25T08:50:53;6.40;99.90
4651;DHT22;2338;49.602;8.722;2022-11-25T08:53:39;6.40;99.90
4651;DHT22;2338;49.602;8.722;2022-11-25T08:56:26;6.40;99.90
4651;DHT22;2338;49.602;8.722;2022-11-25T08:59:11;6.40;99.90
4651;DHT22;2338;49.602;8.722;2022-11-25T09:01:57;6.40;99.90
4651;DHT22;2338;49.602;8.722;2022-11-25T09:04:44;6.60;99.90
4651;DHT22;2338;49.602;8.722;2022-11-25T09:07:29;6.60;99.90
4651;DHT22;2338;49.602;8.722;2022-11-25T09:10:15;6.60;99.90
4651;DHT22;2338;49.602;8.722;2022-11-25T09:13:01;6.60;99.90
4651;DHT22;2338;49.602;8.722;2022-11-25T09:15:47;6.70;99.90
4651;DHT22;2338;49.602;8.722;2022-11-25T09:18:32;6.70;99.90
4651;DHT22;2338;49.602;8.722;2022-11-25T09:21:22;6.70;99.90
4651;DHT22;2338;49.602;8.722;2022-11-25T09:24:08;6.70;99.90
4651;DHT22;2338;49.602;8.722;2022-11-25T09:26:54;6.70;99.90
4651;DHT22;2338;49.602;8.722;2022-11-25T09:29:39;6.70;99.90
4651;DHT22;2338;49.602;8.722;2022-11-25T09:32:24;6.70;99.90
4651;DHT22;2338;49.602;8.722;2022-11-25T09:35:10;6.70;99.90
4651;DHT22;2338;49.602;8.722;2022-11-25T09:37:57;6.70;99.90
4651;DHT22;2338;49.602;8.722;2022-11-25T09:40:47;6.80;99.90
4651;DHT22;2338;49.602;8.722;2022-11-25T09:43:42;6.80;99.90
4651;DHT22;2338;49.602;8.722;2022-11-25T09:46:55;6.90;99.90
4651;DHT22;2338;49.602;8.722;2022-11-25T09:49:53;6.90;99.90
4651;DHT22;2338;49.602;8.722;2022-11-25T09:52:47;7.10;99.90
4651;DHT22;2338;49.602;8.722;2022-11-25T09:55:42;7.20;99.90
4651;DHT22;2338;49.602;8.722;2022-11-25T09:58:32;7.30;99.90
4651;DHT22;2338;49.602;8.722;2022-11-25T10:01:21;7.40;99.90
4651;DHT22;2338;49.602;8.722;2022-11-25T10:04:13;7.60;99.90
4651;DHT22;2338;49.602;8.722;2022-11-25T10:07:01;7.70;99.90
4651;DHT22;2338;49.602;8.722;2022-11-25T10:09:47;7.70;99.90
4651;DHT22;2338;49.602;8.722;2022-11-25T10:12:37;7.80;99.90
4651;DHT22;2338;49.602;8.722;2022-11-25T10:15:27;7.80;99.90
4651;DHT22;2338;49.602;8.722;2022-11-25T10:18:18;7.80;99.90
4651;DHT22;2338;49.602;8.722;2022-11-25T10:21:07;7.90;99.90
4651;DHT22;2338;49.602;8.722;2022-11-25T10:23:53;7.90;99.90
4651;DHT22;2338;49.602;8.722;2022-11-25T10:26:41;7.90;99.90
4651;DHT22;2338;49.602;8.722;2022-11-25T10:29:30;8.00;99.90
4651;DHT22;2338;49.602;8.722;2022-11-25T10:32:21;8.00;99.90
4651;DHT22;2338;49.602;8.722;2022-11-25T10:35:18;8.00;99.90
4651;DHT22;2338;49.602;8.722;2022-11-25T10:38:10;8.10;99.90
4651;DHT22;2338;49.602;8.722;2022-11-25T10:40:56;8.10;99.90
4651;DHT22;2338;49.602;8.722;2022-11-25T10:43:43;8.10;99.90
4651;DHT22;2338;49.602;8.722;2022-11-25T10:46:36;8.10;99.90
4651;DHT22;2338;49.602;8.722;2022-11-25T10:49:27;8.20;99.90
4651;DHT22;2338;49.602;8.722;2022-11-25T10:52:19;8.10;99.90
4651;DHT22;2338;49.602;8.722;2022-11-25T10:55:11;8.10;99.90
4651;DHT22;2338;49.602;8.722;2022-11-25T10:57:57;8.20;99.90
4651;DHT22;2338;49.602;8.722;2022-11-25T11:00:42;8.20;99.90
4651;DHT22;2338;49.602;8.722;2022-11-25T11:03:30;8.30;99.90
4651;DHT22;2338;49.602;8.722;2022-11-25T11:06:37;8.30;99.90
4651;DHT22;2338;49.602;8.722;2022-11-25T11:09:32;8.30;99.90
4651;DHT22;2338;49.602;8.722;2022-11-25T11:12:21;8.30;99.90
4651;DHT22;2338;49.602;8.722;2022-11-25T11:15:17;8.40;99.90
4651;DHT22;2338;49.602;8.722;2022-11-25T11:18:19;8.30;99.90
4651;DHT22;2338;49.602;8.722;2022-11-25T11:21:21;8.30;99.90
4651;DHT22;2338;49.602;8.722;2022-11-25T11:24:24;8.30;99.90
4651;DHT22;2338;49.602;8.722;2022-11-25T11:27:18;8.30;99.90
4651;DHT22;2338;49.602;8.722;2022-11-25T11:30:09;8.20;99.90
4651;DHT22;2338;49.602;8.722;2022-11-25T11:33:01;8.20;99.90
4651;DHT22;2338;49.602;8.722;2022-11-25T11:35:51;8.20;99.90
4651;DHT22;2338;49.602;8.722;2022-11-25T11:38:46;8.20;99.90
4651;DHT22;2338;49.602;8.722;2022-11-25T11:41:38;8.30;99.90
4651;DHT22;2338;49.602;8.722;2022-11-25T11:44:29;8.40;99.90
4651;DHT22;2338;49.602;8.722;2022-11-25T11:47:24;8.40;99.90
4651;DHT22;2338;49.602;8.722;2022-11-25T11:50:25;8.50;99.90
4651;DHT22;2338;49.602;8.722;2022-11-25T11:53:18;8.50;99.90
4651;DHT22;2338;49.602;8.722;2022-11-25T11:56:10;8.60;99.90
4651;DHT22;2338;49.602;8.722;2022-11-25T11:59:16;8.60;99.90
4651;DHT22;2338;49.602;8.722;2022-11-25T12:02:28;8.70;99.90
4651;DHT22;2338;49.602;8.722;2022-11-25T12:05:18;8.80;99.90
4651;DHT22;2338;49.602;8.722;2022-11-25T12:08:09;8.80;99.90
4651;DHT22;2338;49.602;8.722;2022-11-25T12:10:59;8.90;99.90
4651;DHT22;2338;49.602;8.722;2022-11-25T12:13:49;8.90;99.90
4651;DHT22;2338;49.602;8.722;2022-11-25T12:16:42;9.00;99.90
4651;DHT22;2338;49.602;8.722;2022-11-25T12:19:35;9.00;99.90
4651;DHT22;2338;49.602;8.722;2022-11-25T12:22:25;9.10;99.90
4651;DHT22;2338;49.602;8.722;2022-11-25T12:25:17;9.10;99.90
4651;DHT22;2338;49.602;8.722;2022-11-25T12:28:08;9.30;99.90
4651;DHT22;2338;49.602;8.722;2022-11-25T12:31:03;9.40;99.90
4651;DHT22;2338;49.602;8.722;2022-11-25T12:34:00;9.40;99.90
4651;DHT22;2338;49.602;8.722;2022-11-25T12:36:58;9.30;99.90
4651;DHT22;2338;49.602;8.722;2022-11-25T12:39:56;9.30;99.90
4651;DHT22;2338;49.602;8.722;2022-11-25T12:42:47;9.30;99.90
4651;DHT22;2338;49.602;8.722;2022-11-25T12:45:33;9.30;99.90
4651;DHT22;2338;49.602;8.722;2022-11-25T12:48:20;9.40;99.90
4651;DHT22;2338;49.602;8.722;2022-11-25T12:51:15;9.50;99.90
4651;DHT22;2338;49.602;8.722;2022-11-25T12:54:09;9.50;99.90
4651;DHT22;2338;49.602;8.722;2022-11-25T12:57:19;9.50;99.90
4651;DHT22;2338;49.602;8.722;2022-11-25T13:00:12;9.60;99.90
4651;DHT22;2338;49.602;8.722;2022-11-25T13:06:27;9.50;99.90
4651;DHT22;2338;49.602;8.722;2022-11-25T13:09:34;9.50;99.90
4651;DHT22;2338;49.602;8.722;2022-11-25T13:12:33;9.60;99.90
4651;DHT22;2338;49.602;8.722;2022-11-25T13:15:25;9.60;99.90
4651;DHT22;2338;49.602;8.722;2022-11-25T13:18:14;9.60;99.90
4651;DHT22;2338;49.602;8.722;2022-11-25T13:21:09;9.60;99.90
4651;DHT22;2338;49.602;8.722;2022-11-25T13:23:57;9.60;99.90
4651;DHT22;2338;49.602;8.722;2022-11-25T13:26:48;9.60;99.90
4651;DHT22;2338;49.602;8.722;2022-11-25T13:29:58;9.50;99.90
4651;DHT22;2338;49.602;8.722;2022-11-25T13:32:47;9.50;99.90
4651;DHT22;2338;49.602;8.722;2022-11-25T13:35:35;9.50;99.90
4651;DHT22;2338;49.602;8.722;2022-11-25T13:41:48;9.60;99.90
4651;DHT22;2338;49.602;8.722;2022-11-25T13:44:50;9.50;99.90
4651;DHT22;2338;49.602;8.722;2022-11-25T13:47:37;9.50;99.90
4651;DHT22;2338;49.602;8.722;2022-11-25T13:50:25;9.60;99.90
4651;DHT22;2338;49.602;8.722;2022-11-25T13:53:19;9.50;99.90
4651;DHT22;2338;49.602;8.722;2022-11-25T13:56:14;9.60;99.90
4651;DHT22;2338;49.602;8.722;2022-11-25T13:59:36;9.60;99.90
4651;DHT22;2338;49.602;8.722;2022-11-25T14:02:41;9.70;99.90
4651;DHT22;2338;49.602;8.722;2022-11-25T14:05:53;9.70;99.90
4651;DHT22;2338;49.602;8.722;2022-11-25T14:08:52;9.80;99.90
4651;DHT22;2338;49.602;8.722;2022-11-25T14:12:01;9.80;99.90
4651;DHT22;2338;49.602;8.722;2022-11-25T14:15:14;9.70;99.90
4651;DHT22;2338;49.602;8.722;2022-11-25T14:18:18;9.80;99.90
4651;DHT22;2338;49.602;8.722;2022-11-25T14:21:15;9.60;99.90
4651;DHT22;2338;49.602;8.722;2022-11-25T14:24:14;9.50;99.90
4651;DHT22;2338;49.602;8.722;2022-11-25T14:27:03;9.50;99.90
4651;DHT22;2338;49.602;8.722;2022-11-25T14:29:51;9.50;99.90
4651;DHT22;2338;49.602;8.722;2022-11-25T14:32:43;9.40;99.90
4651;DHT22;2338;49.602;8.722;2022-11-25T14:35:33;9.30;99.90
4651;DHT22;2338;49.602;8.722;2022-11-25T14:38:24;9.30;99.90
4651;DHT22;2338;49.602;8.722;2022-11-25T14:41:16;9.30;99.90
4651;DHT22;2338;49.602;8.722;2022-11-25T14:44:05;9.30;99.90
4651;DHT22;2338;49.602;8.722;2022-11-25T14:46:52;9.30;99.90
4651;DHT22;2338;49.602;8.722;2022-11-25T14:49:49;9.30;99.90
4651;DHT22;2338;49.602;8.722;2022-11-25T14:52:35;9.40;99.90
4651;DHT22;2338;49.602;8.722;2022-11-25T14:55:27;9.30;99.90
4651;DHT22;2338;49.602;8.722;2022-11-25T14:58:14;9.30;99.90
4651;DHT22;2338;49.602;8.722;2022-11-25T15:01:01;9.30;99.90
4651;DHT22;2338;49.602;8.722;2022-11-25T15:03:50;9.40;99.90
4651;DHT22;2338;49.602;8.722;2022-11-25T15:06:39;9.40;99.90
4651;DHT22;2338;49.602;8.722;2022-11-25T15:09:27;9.40;99.90
4651;DHT22;2338;49.602;8.722;2022-11-25T15:12:15;9.40;99.90
4651;DHT22;2338;49.602;8.722;2022-11-25T15:15:02;9.30;99.90
4651;DHT22;2338;49.602;8.722;2022-11-25T15:17:47;9.30;99.90
4651;DHT22;2338;49.602;8.722;2022-11-25T15:20:33;9.30;99.90
4651;DHT22;2338;49.602;8.722;2022-11-25T15:23:25;9.30;99.90
4651;DHT22;2338;49.602;8.722;2022-11-25T15:26:16;9.30;99.90
4651;DHT22;2338;49.602;8.722;2022-11-25T15:29:10;9.30;99.90
4651;DHT22;2338;49.602;8.722;2022-11-25T15:31:58;9.30;99.90
4651;DHT22;2338;49.602;8.722;2022-11-25T15:34:43;9.30;99.90
4651;DHT22;2338;49.602;8.722;2022-11-25T15:37:29;9.30;99.90
4651;DHT22;2338;49.602;8.722;2022-11-25T15:40:33;9.30;99.90
4651;DHT22;2338;49.602;8.722;2022-11-25T15:43:23;9.30;99.90
4651;DHT22;2338;49.602;8.722;2022-11-25T15:46:09;9.30;99.90
4651;DHT22;2338;49.602;8.722;2022-11-25T15:48:57;9.30;99.90
4651;DHT22;2338;49.602;8.722;2022-11-25T15:51:49;9.30;99.90
4651;DHT22;2338;49.602;8.722;2022-11-25T15:54:38;9.30;99.90
4651;DHT22;2338;49.602;8.722;2022-11-25T15:57:29;9.20;99.90
4651;DHT22;2338;49.602;8.722;2022-11-25T16:00:18;9.10;99.90
4651;DHT22;2338;49.602;8.722;2022-11-25T16:03:17;9.00;99.90
4651;DHT22;2338;49.602;8.722;2022-11-25T16:06:18;8.90;99.90
4651;DHT22;2338;49.602;8.722;2022-11-25T16:09:18;9.00;99.90
4651;DHT22;2338;49.602;8.722;2022-11-25T16:12:05;8.90;99.90
4651;DHT22;2338;49.602;8.722;2022-11-25T16:14:54;8.80;99.90
4651;DHT22;2338;49.602;8.722;2022-11-25T16:17:40;8.90;99.90
4651;DHT22;2338;49.602;8.722;2022-11-25T16:20:25;8.90;99.90
4651;DHT22;2338;49.602;8.722;2022-11-25T16:23:12;8.90;99.90
4651;DHT22;2338;49.602;8.722;2022-11-25T16:26:01;8.90;99.90
4651;DHT22;2338;49.602;8.722;2022-11-25T16:28:52;8.90;99.90
4651;DHT22;2338;49.602;8.722;2022-11-25T16:31:40;8.70;99.90
4651;DHT22;2338;49.602;8.722;2022-11-25T16:34:26;8.70;99.90
4651;DHT22;2338;49.602;8.722;2022-11-25T16:37:13;8.70;99.90
4651;DHT22;2338;49.602;8.722;2022-11-25T16:39:58;8.60;99.90
4651;DHT22;2338;49.602;8.722;2022-11-25T16:42:46;8.60;99.90
4651;DHT22;2338;49.602;8.722;2022-11-25T16:45:32;8.60;99.90
4651;DHT22;2338;49.602;8.722;2022-11-25T16:48:20;8.60;99.90
4651;DHT22;2338;49.602;8.722;2022-11-25T16:51:08;8.60;99.90
4651;DHT22;2338;49.602;8.722;2022-11-25T16:53:57;8.60;99.90
4651;DHT22;2338;49.602;8.722;2022-11-25T16:56:43;8.60;99.90
4651;DHT22;2338;49.602;8.722;2022-11-25T16:59:32;8.60;99.90
4651;DHT22;2338;49.602;8.722;2022-11-25T17:02:20;8.60;99.90
4651;DHT22;2338;49.602;8.722;2022-11-25T17:05:15;8.50;99.90
4651;DHT22;2338;49.602;8.722;2022-11-25T17:08:01;8.60;99.90
4651;DHT22;2338;49.602;8.722;2022-11-25T17:10:48;8.50;99.90
4651;DHT22;2338;49.602;8.722;2022-11-25T17:13:35;8.50;99.90
4651;DHT22;2338;49.602;8.722;2022-11-25T17:16:26;8.50;99.90
4651;DHT22;2338;49.602;8.722;2022-11-25T17:19:14;8.50;99.90
4651;DHT22;2338;49.602;8.722;2022-11-25T17:22:02;8.50;99.90
4651;DHT22;2338;49.602;8.722;2022-11-25T17:24:47;8.50;99.90
4651;DHT22;2338;49.602;8.722;2022-11-25T17:27:33;8.50;99.90
4651;DHT22;2338;49.602;8.722;2022-11-25T17:30:21;8.50;99.90
4651;DHT22;2338;49.602;8.722;2022-11-25T17:33:12;8.50;99.90
4651;DHT22;2338;49.602;8.722;2022-11-25T17:35:58;8.60;99.90
4651;DHT22;2338;49.602;8.722;2022-11-25T17:38:46;8.60;99.90
4651;DHT22;2338;49.602;8.722;2022-11-25T17:41:31;8.50;99.90
4651;DHT22;2338;49.602;8.722;2022-11-25T17:44:24;8.60;99.90
4651;DHT22;2338;49.602;8.722;2022-11-25T17:47:11;8.60;99.90
4651;DHT22;2338;49.602;8.722;2022-11-25T17:49:57;8.50;99.90
4651;DHT22;2338;49.602;8.722;2022-11-25T17:52:43;8.60;99.90
4651;DHT22;2338;49.602;8.722;2022-11-25T17:55:30;8.60;99.90
4651;DHT22;2338;49.602;8.722;2022-11-25T17:58:16;8.60;99.90
4651;DHT22;2338;49.602;8.722;2022-11-25T18:01:02;8.60;99.90
4651;DHT22;2338;49.602;8.722;2022-11-25T18:03:47;8.60;99.90
4651;DHT22;2338;49.602;8.722;2022-11-25T18:06:36;8.50;99.90
4651;DHT22;2338;49.602;8.722;2022-11-25T18:09:22;8.40;99.90
4651;DHT22;2338;49.602;8.722;2022-11-25T18:12:13;8.20;99.90
4651;DHT22;2338;49.602;8.722;2022-11-25T18:15:00;8.20;99.90
4651;DHT22;2338;49.602;8.722;2022-11-25T18:17:55;8.20;99.90
4651;DHT22;2338;49.602;8.722;2022-11-25T18:20:44;8.20;99.90
4651;DHT22;2338;49.602;8.722;2022-11-25T18:23:29;8.20;99.90
4651;DHT22;2338;49.602;8.722;2022-11-25T18:26:15;8.30;99.90
4651;DHT22;2338;49.602;8.722;2022-11-25T18:29:02;8.30;99.90
4651;DHT22;2338;49.602;8.722;2022-11-25T18:31:47;8.40;99.90
4651;DHT22;2338;49.602;8.722;2022-11-25T18:34:33;8.30;99.90
4651;DHT22;2338;49.602;8.722;2022-11-25T18:37:19;8.30;99.90
4651;DHT22;2338;49.602;8.722;2022-11-25T18:40:05;8.30;99.90
4651;DHT22;2338;49.602;8.722;2022-11-25T18:42:53;8.30;99.90
4651;DHT22;2338;49.602;8.722;2022-11-25T18:45:41;8.30;99.90
4651;DHT22;2338;49.602;8.722;2022-11-25T18:48:28;8.20;99.90